createdAt,value
2019-05-21T00:00:39.988Z,11.40
2019-05-21T00:03:09.937Z,11.40
2019-05-21T00:05:39.989Z,11.40
2019-05-21T00:08:10.171Z,11.40
2019-05-21T00:10:40.231Z,11.30
2019-05-21T00:13:11.380Z,11.30
2019-05-21T00:15:41.510Z,11.30
2019-05-21T00:18:11.680Z,11.30
2019-05-21T00:20:42.287Z,11.30
2019-05-21T00:23:12.412Z,11.30
2019-05-21T00:25:42.506Z,11.30
2019-05-21T00:28:35.044Z,11.40
2019-05-21T00:31:41.972Z,11.30
2019-05-21T00:34:49.144Z,11.30
2019-05-21T00:37:55.535Z,11.30
2019-05-21T00:41:02.189Z,11.40
2019-05-21T00:43:54.613Z,11.40
2019-05-21T00:46:25.847Z,11.40
2019-05-21T00:48:56.003Z,11.30
2019-05-21T00:51:26.245Z,11.40
2019-05-21T00:53:56.184Z,11.40
2019-05-21T00:56:26.168Z,11.30
2019-05-21T00:58:56.205Z,11.30
2019-05-21T01:01:26.278Z,11.30
2019-05-21T01:03:56.224Z,11.30
2019-05-21T01:06:26.277Z,11.30
2019-05-21T01:08:56.490Z,11.30
2019-05-21T01:11:26.608Z,11.40
2019-05-21T01:13:56.565Z,11.30
2019-05-21T01:16:27.755Z,11.30
2019-05-21T01:18:57.789Z,11.40
2019-05-21T01:21:27.982Z,11.30
2019-05-21T01:23:59.185Z,11.30
2019-05-21T01:26:29.259Z,11.30
2019-05-21T01:28:59.376Z,11.30
2019-05-21T01:31:29.397Z,11.30
2019-05-21T01:33:59.514Z,11.30
2019-05-21T01:36:29.613Z,11.30
2019-05-21T01:38:59.688Z,11.20
2019-05-21T01:41:29.781Z,11.30
2019-05-21T01:43:59.828Z,11.30
2019-05-21T01:46:29.794Z,11.30
2019-05-21T01:49:00.967Z,11.20
2019-05-21T01:51:30.913Z,11.20
2019-05-21T01:54:01.060Z,11.20
2019-05-21T01:56:31.100Z,11.30
2019-05-21T01:59:01.203Z,11.30
2019-05-21T02:01:31.312Z,11.30
2019-05-21T02:04:01.370Z,11.30
2019-05-21T02:06:31.552Z,11.30
2019-05-21T02:09:01.645Z,11.30
2019-05-21T02:11:32.184Z,11.30
2019-05-21T02:14:02.272Z,11.20
2019-05-21T02:16:32.340Z,11.30
2019-05-21T02:19:02.517Z,11.20
2019-05-21T02:21:32.805Z,11.10
2019-05-21T02:24:02.834Z,11.20
2019-05-21T02:26:32.867Z,11.10
2019-05-21T02:29:02.930Z,11.10
2019-05-21T02:31:32.900Z,11.10
2019-05-21T02:34:02.985Z,11.10
2019-05-21T02:36:33.019Z,11.00
2019-05-21T02:39:04.610Z,11.00
2019-05-21T02:41:34.793Z,11.00
2019-05-21T02:44:04.997Z,11.00
2019-05-21T02:46:35.111Z,11.00
2019-05-21T02:49:05.202Z,11.00
2019-05-21T02:51:35.312Z,11.00
2019-05-21T02:54:05.387Z,10.90
2019-05-21T02:56:35.500Z,10.90
2019-05-21T02:59:05.586Z,11.00
2019-05-21T03:01:37.264Z,11.00
2019-05-21T03:04:08.421Z,11.00
2019-05-21T03:06:39.595Z,10.90
2019-05-21T03:09:09.692Z,10.90
2019-05-21T03:11:39.808Z,10.80
2019-05-21T03:14:09.820Z,10.90
2019-05-21T03:16:39.930Z,10.80
2019-05-21T03:19:11.087Z,10.80
2019-05-21T03:21:41.122Z,10.70
2019-05-21T03:24:11.204Z,10.70
2019-05-21T03:26:41.176Z,10.70
2019-05-21T03:29:11.218Z,10.70
2019-05-21T03:31:41.258Z,10.70
2019-05-21T03:34:11.250Z,10.60
2019-05-21T03:36:41.344Z,10.70
2019-05-21T03:39:11.461Z,10.70
2019-05-21T03:41:41.548Z,10.70
2019-05-21T03:44:11.658Z,10.70
2019-05-21T03:46:41.672Z,10.70
2019-05-21T03:49:11.785Z,10.60
2019-05-21T03:51:41.868Z,10.60
2019-05-21T03:54:11.832Z,10.60
2019-05-21T03:56:41.843Z,10.60
2019-05-21T03:59:11.960Z,10.60
2019-05-21T04:01:42.041Z,10.60
2019-05-21T04:04:12.153Z,10.60
2019-05-21T04:06:52.031Z,10.60
2019-05-21T04:09:13.887Z,10.60
2019-05-21T04:11:43.866Z,10.60
2019-05-21T04:14:15.701Z,10.50
2019-05-21T04:16:47.313Z,10.50
2019-05-21T04:19:31.330Z,10.50
2019-05-21T04:22:01.311Z,10.50
2019-05-21T04:24:31.328Z,10.50
2019-05-21T04:27:01.361Z,10.40
2019-05-21T04:29:31.380Z,10.50
2019-05-21T04:32:01.396Z,10.50
2019-05-21T04:34:31.526Z,10.50
2019-05-21T04:37:10.615Z,10.50
2019-05-21T04:39:33.284Z,10.50
2019-05-21T04:42:03.341Z,10.50
2019-05-21T04:44:33.345Z,10.50
2019-05-21T04:47:03.438Z,10.50
2019-05-21T04:49:33.446Z,10.50
2019-05-21T04:52:03.618Z,10.40
2019-05-21T04:54:33.702Z,10.40
2019-05-21T04:57:03.797Z,10.40
2019-05-21T04:59:33.770Z,10.40
2019-05-21T05:02:03.864Z,10.30
2019-05-21T05:04:33.984Z,10.40
2019-05-21T05:07:04.079Z,10.30
2019-05-21T05:09:34.115Z,10.40
2019-05-21T05:12:04.204Z,10.40
2019-05-21T05:14:34.237Z,10.40
2019-05-21T05:17:04.321Z,10.40
2019-05-21T05:19:34.447Z,10.40
2019-05-21T05:22:04.524Z,10.40
2019-05-21T05:24:37.077Z,10.40
2019-05-21T05:27:06.275Z,10.40
2019-05-21T05:29:36.309Z,10.40
2019-05-21T05:32:06.464Z,10.40
2019-05-21T05:34:36.597Z,10.40
2019-05-21T05:37:06.682Z,10.30
2019-05-21T05:39:36.792Z,10.40
2019-05-21T05:42:06.908Z,10.40
2019-05-21T05:44:36.992Z,10.40
2019-05-21T05:47:07.032Z,10.40
2019-05-21T05:49:38.613Z,10.30
2019-05-21T05:52:08.673Z,10.40
2019-05-21T05:54:38.764Z,10.40
2019-05-21T05:57:08.868Z,10.40
2019-05-21T05:59:38.958Z,10.40
2019-05-21T06:02:09.076Z,10.40
2019-05-21T06:04:39.283Z,10.30
2019-05-21T06:07:09.245Z,10.30
2019-05-21T06:09:39.332Z,10.30
2019-05-21T06:12:09.452Z,10.40
2019-05-21T06:14:39.537Z,10.50
2019-05-21T06:17:09.580Z,10.40
2019-05-21T06:19:39.593Z,10.30
2019-05-21T06:22:09.555Z,10.40
2019-05-21T06:24:39.658Z,10.30
2019-05-21T06:27:09.767Z,10.40
2019-05-21T06:29:39.859Z,10.60
2019-05-21T06:32:09.964Z,10.40
2019-05-21T06:34:40.072Z,10.40
2019-05-21T06:37:11.230Z,10.50
2019-05-21T06:39:41.336Z,10.60
2019-05-21T06:42:11.425Z,10.60
2019-05-21T06:44:41.460Z,10.60
2019-05-21T06:47:11.477Z,10.60
2019-05-21T06:49:41.532Z,10.50
2019-05-21T06:52:11.613Z,10.60
2019-05-21T06:54:41.791Z,10.50
2019-05-21T06:57:11.880Z,10.40
2019-05-21T06:59:42.000Z,10.40
2019-05-21T07:02:12.098Z,10.30
2019-05-21T07:04:43.166Z,10.40
2019-05-21T07:07:13.159Z,10.50
2019-05-21T07:09:43.265Z,10.40
2019-05-21T07:12:13.352Z,10.40
2019-05-21T07:14:43.389Z,10.40
2019-05-21T07:17:13.527Z,10.40
2019-05-21T07:19:43.582Z,10.40
2019-05-21T07:22:13.721Z,10.40
2019-05-21T07:24:43.681Z,10.50
2019-05-21T07:27:13.772Z,10.50
2019-05-21T07:29:43.923Z,10.40
2019-05-21T07:32:14.033Z,10.40
2019-05-21T07:34:44.145Z,10.30
2019-05-21T07:37:14.319Z,10.30
2019-05-21T07:39:44.416Z,10.30
2019-05-21T07:42:14.436Z,10.40
2019-05-21T07:44:44.408Z,10.30
2019-05-21T07:47:14.513Z,10.30
2019-05-21T07:49:44.532Z,10.30
2019-05-21T07:52:14.648Z,10.30
2019-05-21T07:54:44.691Z,10.30
2019-05-21T07:57:14.663Z,10.40
2019-05-21T07:59:44.681Z,10.40
2019-05-21T08:02:14.719Z,10.30
2019-05-21T08:04:45.769Z,10.30
2019-05-21T08:07:15.923Z,10.30
2019-05-21T08:09:45.945Z,10.40
2019-05-21T08:12:35.452Z,10.40
2019-05-21T08:14:47.612Z,10.30
2019-05-21T08:17:17.737Z,10.20
2019-05-21T08:19:47.748Z,10.20
2019-05-21T08:22:17.727Z,10.30
2019-05-21T08:24:47.813Z,10.40
2019-05-21T08:27:17.918Z,10.40
2019-05-21T08:29:48.254Z,10.40
2019-05-21T08:32:18.302Z,10.40
2019-05-21T08:34:48.376Z,10.40
2019-05-21T08:37:19.489Z,10.30
2019-05-21T08:39:49.528Z,10.40
2019-05-21T08:42:19.544Z,10.30
2019-05-21T08:44:49.584Z,10.40
2019-05-21T08:47:19.673Z,10.40
2019-05-21T08:49:50.721Z,10.30
2019-05-21T08:52:20.813Z,10.40
2019-05-21T08:54:51.393Z,10.30
2019-05-21T08:57:21.481Z,10.40
2019-05-21T08:59:51.764Z,10.30
2019-05-21T09:02:23.423Z,10.50
2019-05-21T09:04:53.532Z,10.50
2019-05-21T09:07:23.641Z,10.70
2019-05-21T09:09:53.736Z,10.70
2019-05-21T09:12:23.778Z,10.60
2019-05-21T09:14:53.723Z,10.60
2019-05-21T09:17:23.768Z,10.60
2019-05-21T09:19:54.036Z,10.60
2019-05-21T09:22:24.200Z,10.70
2019-05-21T09:24:54.285Z,10.80
2019-05-21T09:27:24.397Z,10.90
2019-05-21T09:29:54.420Z,10.80
2019-05-21T09:32:24.457Z,10.70
2019-05-21T09:34:54.469Z,10.90
2019-05-21T09:37:24.508Z,11.00
2019-05-21T09:39:54.760Z,11.10
2019-05-21T09:42:24.919Z,11.10
2019-05-21T09:44:55.004Z,11.00
2019-05-21T09:47:25.118Z,11.10
2019-05-21T09:49:55.369Z,11.20
2019-05-21T09:52:25.494Z,11.30
2019-05-21T09:54:55.532Z,11.20
2019-05-21T09:57:30.027Z,11.10
2019-05-21T10:00:10.600Z,11.10
2019-05-21T10:02:40.713Z,11.30
2019-05-21T10:05:10.821Z,11.40
2019-05-21T10:07:40.974Z,11.50
2019-05-21T10:10:12.456Z,11.60
2019-05-21T10:12:42.488Z,11.70
2019-05-21T10:15:12.621Z,11.60
2019-05-21T10:17:42.714Z,11.50
2019-05-21T10:20:13.175Z,11.30
2019-05-21T10:22:43.256Z,11.50
2019-05-21T10:25:15.892Z,11.60
2019-05-21T10:27:45.477Z,11.70
2019-05-21T10:30:16.100Z,11.60
2019-05-21T10:32:46.181Z,11.60
2019-05-21T10:35:16.299Z,11.60
2019-05-21T10:37:54.657Z,11.50
2019-05-21T10:40:18.399Z,11.60
2019-05-21T10:42:48.490Z,11.60
2019-05-21T10:45:18.766Z,11.60
2019-05-21T10:47:48.857Z,11.80
2019-05-21T10:50:19.068Z,11.80
2019-05-21T10:52:49.250Z,11.80
2019-05-21T10:55:19.417Z,11.80
2019-05-21T10:57:49.595Z,11.80
2019-05-21T11:00:23.059Z,11.80
2019-05-21T11:03:09.645Z,11.90
2019-05-21T11:05:44.077Z,12.00
2019-05-21T11:08:23.853Z,11.70
2019-05-21T11:10:45.825Z,11.70
2019-05-21T11:13:16.040Z,11.80
2019-05-21T11:15:46.123Z,11.70
2019-05-21T11:18:16.333Z,11.60
2019-05-21T11:20:46.556Z,11.50
2019-05-21T11:23:16.692Z,11.60
2019-05-21T11:25:46.786Z,11.50
2019-05-21T11:28:16.920Z,11.60
2019-05-21T11:30:46.910Z,11.60
2019-05-21T11:33:17.231Z,11.40
2019-05-21T11:35:47.321Z,11.30
2019-05-21T11:38:17.364Z,11.40
2019-05-21T11:40:50.925Z,11.40
2019-05-21T11:43:19.202Z,11.50
2019-05-21T11:45:49.240Z,11.40
2019-05-21T11:48:19.405Z,11.30
2019-05-21T11:50:49.553Z,11.40
2019-05-21T11:53:19.685Z,11.40
2019-05-21T11:55:49.732Z,11.40
2019-05-21T11:58:19.895Z,11.40
2019-05-21T12:00:50.440Z,11.40
2019-05-21T12:03:20.529Z,11.30
2019-05-21T12:05:50.668Z,11.20
2019-05-21T12:08:20.793Z,11.30
2019-05-21T12:10:51.771Z,11.30
2019-05-21T12:13:21.865Z,11.50
2019-05-21T12:15:51.907Z,11.50
2019-05-21T12:18:22.063Z,11.30
2019-05-21T12:20:52.047Z,11.30
2019-05-21T12:23:22.059Z,11.30
2019-05-21T12:25:52.211Z,11.20
2019-05-21T12:28:22.195Z,11.30
2019-05-21T12:30:52.234Z,11.40
2019-05-21T12:33:22.298Z,11.40
2019-05-21T12:35:52.381Z,11.40
2019-05-21T12:38:22.422Z,11.30
2019-05-21T12:40:52.506Z,11.40
2019-05-21T12:43:22.625Z,11.40
2019-05-21T12:45:52.712Z,11.40
2019-05-21T12:48:22.825Z,11.30
2019-05-21T12:50:52.848Z,11.20
2019-05-21T12:53:22.885Z,11.30
2019-05-21T12:55:52.904Z,11.20
2019-05-21T12:58:23.014Z,11.30
2019-05-21T13:00:53.105Z,11.30
2019-05-21T13:03:23.143Z,11.30
2019-05-21T13:05:53.297Z,11.30
2019-05-21T13:08:23.482Z,11.30
2019-05-21T13:10:53.598Z,11.40
2019-05-21T13:13:23.696Z,11.30
2019-05-21T13:15:53.709Z,11.30
2019-05-21T13:18:23.827Z,11.20
2019-05-21T13:20:53.901Z,11.30
2019-05-21T13:23:24.184Z,11.30
2019-05-21T13:25:54.276Z,11.30
2019-05-21T13:28:24.392Z,11.20
2019-05-21T13:31:04.410Z,11.20
2019-05-21T13:33:44.761Z,11.10
2019-05-21T13:36:27.444Z,11.20
2019-05-21T13:39:06.811Z,11.20
2019-05-21T13:41:45.894Z,11.30
2019-05-21T13:44:28.090Z,11.20
2019-05-21T13:47:06.956Z,11.30
2019-05-21T13:49:47.397Z,11.30
2019-05-21T13:52:25.747Z,11.10
2019-05-21T13:55:08.885Z,11.00
2019-05-21T13:57:49.815Z,11.00
2019-05-21T14:00:47.057Z,11.10
2019-05-21T14:03:29.439Z,11.10
2019-05-21T14:06:12.777Z,11.10
2019-05-21T14:08:57.354Z,11.20
2019-05-21T14:11:39.610Z,11.10
2019-05-21T14:14:20.534Z,11.10
2019-05-21T14:16:58.322Z,11.10
2019-05-21T14:19:37.515Z,11.00
2019-05-21T14:22:16.906Z,11.10
2019-05-21T14:24:58.561Z,11.10
2019-05-21T14:27:44.599Z,11.10
2019-05-21T14:30:18.801Z,11.10
2019-05-21T14:32:59.034Z,11.00
2019-05-21T14:35:39.702Z,11.00
2019-05-21T14:38:18.569Z,10.90
2019-05-21T14:41:05.342Z,10.90
2019-05-21T14:43:45.274Z,11.00
2019-05-21T14:46:25.589Z,10.90
2019-05-21T14:49:03.527Z,10.90
2019-05-21T14:51:42.620Z,10.90
2019-05-21T14:54:26.333Z,10.90
2019-05-21T14:56:47.645Z,11.00
2019-05-21T14:59:18.622Z,11.00
2019-05-21T15:01:48.695Z,10.90
2019-05-21T15:04:18.941Z,10.90
2019-05-21T15:06:49.279Z,10.90
2019-05-21T15:09:19.784Z,10.90
2019-05-21T15:11:49.881Z,11.00
2019-05-21T15:14:20.063Z,11.10
2019-05-21T15:16:50.144Z,11.00
2019-05-21T15:19:20.329Z,10.90
2019-05-21T15:21:55.102Z,10.90
2019-05-21T15:24:25.183Z,10.90
2019-05-21T15:26:55.266Z,10.80
2019-05-21T15:29:25.355Z,10.80
2019-05-21T15:31:55.322Z,10.90
2019-05-21T15:34:25.431Z,10.90
2019-05-21T15:36:55.517Z,10.90
2019-05-21T15:39:25.633Z,10.90
2019-05-21T15:41:55.672Z,10.90
2019-05-21T15:44:25.753Z,10.90
2019-05-21T15:46:55.794Z,10.90
2019-05-21T15:49:35.556Z,10.90
2019-05-21T15:51:57.615Z,10.80
2019-05-21T15:54:27.644Z,10.80
2019-05-21T15:56:57.758Z,10.80
2019-05-21T15:59:27.844Z,10.80
2019-05-21T16:01:57.967Z,10.80
2019-05-21T16:04:28.086Z,10.80
2019-05-21T16:06:58.176Z,10.90
2019-05-21T16:09:28.216Z,10.80
2019-05-21T16:11:58.301Z,10.70
2019-05-21T16:14:28.421Z,10.70
2019-05-21T16:16:58.567Z,10.70
2019-05-21T16:19:28.681Z,10.70
2019-05-21T16:21:58.830Z,10.70
2019-05-21T16:24:28.942Z,10.80
2019-05-21T16:26:59.025Z,10.70
2019-05-21T16:29:30.133Z,10.70
2019-05-21T16:32:00.149Z,10.70
2019-05-21T16:34:32.115Z,10.80
2019-05-21T16:37:02.035Z,10.80
2019-05-21T16:39:32.518Z,10.80
2019-05-21T16:42:02.536Z,10.80
2019-05-21T16:44:32.756Z,10.80
2019-05-21T16:47:03.037Z,10.80
2019-05-21T16:49:33.048Z,10.90
2019-05-21T16:52:03.132Z,10.90
2019-05-21T16:54:33.241Z,10.90
2019-05-21T16:57:03.290Z,10.90
2019-05-21T16:59:33.394Z,10.90
2019-05-21T17:02:03.883Z,10.80
2019-05-21T17:04:35.028Z,10.90
2019-05-21T17:07:05.142Z,11.00
2019-05-21T17:09:35.237Z,10.90
2019-05-21T17:12:05.645Z,10.90
2019-05-21T17:14:35.807Z,10.90
2019-05-21T17:17:05.923Z,10.80
2019-05-21T17:19:36.065Z,10.90
2019-05-21T17:22:06.175Z,10.90
2019-05-21T17:24:36.334Z,10.80
2019-05-21T17:27:07.469Z,10.90
2019-05-21T17:29:37.468Z,10.90
2019-05-21T17:32:07.581Z,10.90
2019-05-21T17:34:37.598Z,10.80
2019-05-21T17:37:07.817Z,10.80
2019-05-21T17:39:37.882Z,10.80
2019-05-21T17:42:15.490Z,10.80
2019-05-21T17:44:40.169Z,10.90
2019-05-21T17:47:10.253Z,10.90
2019-05-21T17:49:40.466Z,10.90
2019-05-21T17:52:10.615Z,10.90
2019-05-21T17:54:55.608Z,11.00
2019-05-21T17:57:12.987Z,10.90
2019-05-21T17:59:43.021Z,10.90
2019-05-21T18:02:14.102Z,10.90
2019-05-21T18:04:44.677Z,11.00
2019-05-21T18:07:16.532Z,10.90
2019-05-21T18:09:46.532Z,10.90
2019-05-21T18:12:31.081Z,10.90
2019-05-21T18:14:50.584Z,11.00
2019-05-21T18:17:22.507Z,10.90
2019-05-21T18:19:53.435Z,10.80
2019-05-21T18:22:25.656Z,10.80
2019-05-21T18:24:57.013Z,10.90
2019-05-21T18:27:27.264Z,10.80
2019-05-21T18:29:57.373Z,10.90
2019-05-21T18:32:27.633Z,10.90
2019-05-21T18:34:57.739Z,10.90
2019-05-21T18:37:28.117Z,10.80
2019-05-21T18:39:58.292Z,10.80
2019-05-21T18:42:28.394Z,10.80
2019-05-21T18:44:58.412Z,10.80
2019-05-21T18:47:28.552Z,10.80
2019-05-21T18:49:58.705Z,10.80
2019-05-21T18:52:28.886Z,10.80
2019-05-21T18:54:59.031Z,10.90
2019-05-21T18:57:29.209Z,10.90
2019-05-21T18:59:59.564Z,10.80
2019-05-21T19:02:29.781Z,10.90
2019-05-21T19:04:59.989Z,10.80
2019-05-21T19:07:30.153Z,10.90
2019-05-21T19:10:00.971Z,10.90
2019-05-21T19:12:38.128Z,10.90
2019-05-21T19:15:03.835Z,10.90
2019-05-21T19:17:35.828Z,10.90
2019-05-21T19:20:08.012Z,10.90
2019-05-21T19:22:38.243Z,10.80
2019-05-21T19:25:08.508Z,10.80
2019-05-21T19:27:39.767Z,10.90
2019-05-21T19:30:10.848Z,10.90
2019-05-21T19:32:41.227Z,10.90
2019-05-21T19:35:11.875Z,10.80
2019-05-21T19:37:42.101Z,10.80
2019-05-21T19:40:12.487Z,10.80
2019-05-21T19:42:54.278Z,10.80
2019-05-21T19:45:14.441Z,10.80
2019-05-21T19:47:44.546Z,10.80
2019-05-21T19:50:16.727Z,10.80
2019-05-21T19:52:46.773Z,10.80
2019-05-21T19:55:18.019Z,10.90
2019-05-21T19:57:48.128Z,10.90
2019-05-21T20:00:22.028Z,10.90
2019-05-21T20:02:52.553Z,10.80
2019-05-21T20:05:23.169Z,10.90
2019-05-21T20:07:53.303Z,10.90
2019-05-21T20:10:23.387Z,10.90
2019-05-21T20:12:53.980Z,10.80
2019-05-21T20:15:24.153Z,10.80
2019-05-21T20:18:06.554Z,10.90
2019-05-21T20:20:26.976Z,10.90
2019-05-21T20:22:57.458Z,10.80
2019-05-21T20:25:28.707Z,10.80
2019-05-21T20:27:59.494Z,10.80
2019-05-21T20:30:30.418Z,10.80
2019-05-21T20:33:00.827Z,10.90
2019-05-21T20:35:31.213Z,10.80
2019-05-21T20:38:01.320Z,10.80
2019-05-21T20:40:31.686Z,10.80
2019-05-21T20:43:02.088Z,10.80
2019-05-21T20:45:33.069Z,10.70
2019-05-21T20:48:05.360Z,10.80
2019-05-21T20:50:38.319Z,10.80
2019-05-21T20:53:10.377Z,10.80
2019-05-21T20:55:41.958Z,10.70
2019-05-21T20:58:12.269Z,10.70
2019-05-21T21:00:49.950Z,10.70
2019-05-21T21:03:20.057Z,10.70
2019-05-21T21:05:50.564Z,10.70
2019-05-21T21:08:27.028Z,10.70
2019-05-21T21:10:55.152Z,10.70
2019-05-21T21:13:25.970Z,10.80
2019-05-21T21:15:56.077Z,10.70
2019-05-21T21:18:27.100Z,10.70
2019-05-21T21:20:57.580Z,10.70
2019-05-21T21:23:29.549Z,10.80
2019-05-21T21:25:59.927Z,10.70
2019-05-21T21:28:30.075Z,10.70
2019-05-21T21:31:00.457Z,10.70
2019-05-21T21:33:30.540Z,10.70
2019-05-21T21:36:00.656Z,10.80
2019-05-21T21:38:32.478Z,10.70
2019-05-21T21:41:02.715Z,10.70
2019-05-21T21:43:33.864Z,10.70
2019-05-21T21:46:03.972Z,10.60
2019-05-21T21:48:34.987Z,10.70
2019-05-21T21:51:07.005Z,10.60
2019-05-21T21:53:36.489Z,10.60
2019-05-21T21:56:06.417Z,10.60
2019-05-21T21:58:36.632Z,10.70
2019-05-21T22:01:14.216Z,10.70
2019-05-21T22:03:45.865Z,10.80
2019-05-21T22:06:17.319Z,10.70
2019-05-21T22:08:47.545Z,10.70
2019-05-21T22:11:18.301Z,10.70
2019-05-21T22:13:48.948Z,10.70
2019-05-21T22:16:19.667Z,10.70
2019-05-21T22:18:50.651Z,10.70
2019-05-21T22:21:22.037Z,10.70
2019-05-21T22:23:52.415Z,10.60
2019-05-21T22:26:23.163Z,10.60
2019-05-21T22:28:53.312Z,10.60
2019-05-21T22:31:23.385Z,10.70
2019-05-21T22:33:53.443Z,10.70
2019-05-21T22:36:24.795Z,10.70
2019-05-21T22:38:54.837Z,10.70
2019-05-21T22:41:24.944Z,10.70
2019-05-21T22:43:55.154Z,10.60
2019-05-21T22:46:25.548Z,10.70
2019-05-21T22:48:55.589Z,10.70
2019-05-21T22:51:25.604Z,10.70
2019-05-21T22:53:55.713Z,10.70
2019-05-21T22:56:25.824Z,10.70
2019-05-21T22:58:55.937Z,10.60
2019-05-21T23:01:27.752Z,10.50
2019-05-21T23:03:57.864Z,10.50
2019-05-21T23:06:28.380Z,10.60
2019-05-21T23:08:58.466Z,10.50
2019-05-21T23:11:29.014Z,10.60
2019-05-21T23:13:58.964Z,10.60
2019-05-21T23:16:30.043Z,10.50
2019-05-21T23:19:18.909Z,10.50
2019-05-21T23:21:51.893Z,10.60
2019-05-21T23:24:23.649Z,10.60
2019-05-21T23:26:53.837Z,10.60
2019-05-21T23:29:24.609Z,10.60
2019-05-21T23:31:54.722Z,10.50
2019-05-21T23:34:25.015Z,10.50
2019-05-21T23:36:56.184Z,10.60
2019-05-21T23:39:28.140Z,10.50
2019-05-21T23:41:58.820Z,10.50
2019-05-21T23:44:29.074Z,10.60
2019-05-21T23:46:59.748Z,10.60
2019-05-21T23:49:29.963Z,10.60
2019-05-21T23:52:00.272Z,10.60
2019-05-21T23:54:30.597Z,10.50
2019-05-21T23:57:03.302Z,10.50
2019-05-21T23:59:33.752Z,10.60
